Meteo Giornale » Osservazioni meteo Stati Uniti (USA) » Vernal
ore: 14:53 - Osservazioni Meteo Vernal
Lat. 40° 26' N Lon. 109° 30' W Alt. 1607 metri s.l.m.
20 °C
Coperto
Temp. 24 Ore
11 °C
21 °C
Nord
5.5 Km/h
Dew point 12 °C
Umidità 59 %
Visibilità 10 Km
Il sole sorge alle ore 06:44
Il sole tramonta alle ore 19:51
| Data e Ora | Cielo e Fenomeni | T °C | DP °C | Um. % | Pres. hPa | Vis. km | Vento km/h | |
|---|---|---|---|---|---|---|---|---|
| Oggi h: 14:53 | Coperto | 20 | 12 | 59 | 1022 | 10 | N 5.5 | |
| Oggi h: 13:53 | Poco Nuvoloso | 19 | 12 | 63 | 1023 | 10 | S/SE 7.4 | |
| Oggi h: 12:53 | Sereno | 18 | 12 | 67 | 1024 | 10 | SE 9.3 | |
| Oggi h: 11:53 | Sereno | 17 | 13 | 77 | 1024 | 10 | E/SE 7.4 | |
| Oggi h: 10:53 | Sereno | 17 | 12 | 72 | 1024 | 10 | E 7.4 | |
| Oggi h: 09:53 | Sereno | 15 | 11 | 76 | 1024 | 10 | N 0 | |
| Oggi h: 08:53 | Sereno | 13 | 11 | 87 | 1024 | 10 | N 0 | |
| Oggi h: 07:53 | Sereno | 13 | 11 | 87 | 1023 | 10 | N 0 | |
| Oggi h: 06:53 | Sereno | 12 | 10 | 87 | 1022 | 10 | N 5.5 | |
| Oggi h: 05:53 | Sereno | 11 | 10 | 93 | 1023 | 10 | N 0 | |
| Oggi h: 04:53 | Poco Nuvoloso | 12 | 10 | 87 | 1023 | 10 | N 0 | |
| Oggi h: 03:53 | Sereno | 12 | 11 | 93 | 1022 | 10 | N 5.5 | |
| Oggi h: 02:53 | Sereno | 12 | 11 | 93 | 1022 | 10 | N 5.5 | |
| Oggi h: 01:53 | Sereno | 12 | 11 | 93 | 1023 | 10 | N 0 | |
| Oggi h: 00:53 | Sereno | 13 | 12 | 93 | 1023 | 10 | N 0 | |
| Ieri h: 23:53 | Sereno | 13 | 12 | 93 | 1022 | 10 | O 7.4 | |
| Ieri h: 22:53 | Sereno | 14 | 12 | 87 | 1022 | 10 | O 9.3 | |
| Ieri h: 21:53 | Sereno | 14 | 12 | 87 | 1022 | 10 | N 0 | |
| Ieri h: 20:53 | Pioggia | 15 | 12 | 82 | 1022 | 10 | N 0 | |
| Ieri h: 20:49 | Pioggia | 15 | 12 | 82 | 1022 | 10 | O/NO 7.4 | |
| Ieri h: 20:25 | Temporale nelle vicinanze Pioggia | 16 | 11 | 72 | 1022 | 14 | N 0 | |
| Ieri h: 19:53 | Temporale | 19 | 14 | 72 | 1021 | 10 | O/NO 16.7 | |
| Ieri h: 19:50 | Temporale | 19 | 14 | 72 | 1021 | 10 | O/NO 13 | |
| Ieri h: 18:53 | Sereno | 19 | 14 | 72 | 1020 | 10 | NE 9.3 | |
| Ieri h: 17:53 | Nuvoloso | 19 | 14 | 72 | 1020 | 10 | N 0 | |
| Ieri h: 17:31 | Molto Nuvoloso | 19 | 13 | 68 | 1019 | 10 | SE 11.1 | |
| Ieri h: 17:16 | Temporale nelle vicinanze Pioggia | 19 | 14 | 72 | 1020 | 10 | S 9.3 | |
| Ieri h: 16:53 | Sereno | 19 | 13 | 68 | 1020 | 10 | S 11.1 | |
| Ieri h: 15:53 | Sereno | 21 | 13 | 60 | 1020 | 10 | S 13 | |



